Time;durP1;ratioP1;P1;durP2;ratioP2;P2;SDS_P1;SDS_P2;PMS_P1;PMS_P2;Temp;Humidity;BMP_temperature;BMP_pressure;BME280_temperature;BME280_humidity;BME280_pressure;Samples;Min_cycle;Max_cycle;Signal;HPM_P1;HPM_P2
2021/08/19 00:02:26;;;;;;;;;;;;;;;15.80;78.36;99621.59;4918161;29;19977;-70
2021/08/19 00:04:55;;;;;;;;;;;;;;;15.64;79.12;99618.56;4918177;29;19962;-71
2021/08/19 00:07:24;;;;;;;;;;;;;;;15.52;79.36;99623.97;4918726;29;19928;-70
2021/08/19 00:09:53;;;;;;;;;;;;;;;15.41;79.51;99625.88;4918387;29;20433;-70
2021/08/19 00:12:22;;;;;;;;;;;;;;;15.26;79.99;99626.19;4918349;29;19927;-74
2021/08/19 00:14:50;;;;;;;;;;;;;;;15.23;80.11;99626.25;4918007;29;19982;-73
2021/08/19 00:17:21;;;;;;;;;;;;;;;15.30;80.49;99623.53;4918019;29;19954;-72
2021/08/19 00:19:50;;;;;;;;;;;;;;;15.35;80.56;99626.00;4918070;29;19928;-70
2021/08/19 00:22:19;;;;;;;;;;;;;;;15.44;80.57;99625.81;4917875;29;20457;-73
2021/08/19 00:24:47;;;;;;;;;;;;;;;15.63;80.60;99627.13;4917923;29;20377;-70
2021/08/19 00:27:16;;;;;;;;;;;;;;;15.65;80.15;99620.22;4916544;29;19979;-74
2021/08/19 00:29:45;;;;;;;;;;;;;;;15.76;80.01;99626.00;4917880;29;19975;-71
2021/08/19 00:32:13;;;;;;;;;;;;;;;15.87;79.54;99621.44;4917836;29;19954;-70
2021/08/19 00:34:44;;;;;;;;;;;;;;;15.90;79.10;99623.94;4918143;29;19942;-70
2021/08/19 00:37:13;;;;;;;;;;;;;;;15.90;78.70;99628.25;4917838;29;19934;-71
2021/08/19 00:39:42;;;;;;;;;;;;;;;15.96;78.84;99631.50;4917792;29;19931;-71
2021/08/19 00:42:10;;;;;;;;;;;;;;;15.98;78.22;99634.06;4917704;29;19938;-70
2021/08/19 00:44:40;;;;;;;;;;;;;;;15.97;78.14;99634.94;4919718;29;19969;-74
2021/08/19 00:47:09;;;;;;;;;;;;;;;15.90;78.54;99623.09;4921373;29;19935;-72
2021/08/19 00:49:37;;;;;;;;;;;;;;;15.75;78.36;99629.44;4921683;29;19973;-71
2021/08/19 00:52:08;;;;;;;;;;;;;;;15.77;78.60;99621.66;4921939;29;19927;-70
2021/08/19 00:54:37;;;;;;;;;;;;;;;15.79;78.47;99628.47;4921624;29;19927;-73
2021/08/19 00:57:07;;;;;;;;;;;;;;;15.80;78.17;99619.03;4921394;29;19927;-72
2021/08/19 00:59:37;;;;;;;;;;;;;;;15.81;78.14;99633.59;4921731;29;19927;-70
2021/08/19 01:02:07;;;;;;;;;;;;;;;15.72;78.11;99626.94;4921672;29;20026;-71
2021/08/19 01:04:38;;;;;;;;;;;;;;;15.69;77.71;99626.97;4921432;29;19934;-73
2021/08/19 01:07:09;;;;;;;;;;;;;;;15.68;78.27;99630.47;4921267;29;19927;-73
2021/08/19 01:09:38;;;;;;;;;;;;;;;15.55;78.25;99620.47;4921668;29;19934;-74
2021/08/19 01:12:07;;;;;;;;;;;;;;;15.47;78.10;99630.94;4921542;29;20018;-70
2021/08/19 01:14:36;;;;;;;;;;;;;;;15.38;78.55;99636.22;4921154;29;19927;-73
2021/08/19 01:17:07;;;;;;;;;;;;;;;15.28;78.32;99634.72;4921166;29;19934;-73
2021/08/19 01:19:36;;;;;;;;;;;;;;;15.17;78.56;99632.38;4921134;29;19969;-71
2021/08/19 01:22:05;;;;;;;;;;;;;;;14.95;78.19;99635.41;4921363;29;19927;-73
2021/08/19 01:24:36;;;;;;;;;;;;;;;14.72;78.78;99639.25;4921195;29;20281;-71
2021/08/19 01:27:05;;;;;;;;;;;;;;;14.71;79.53;99636.69;4921042;29;19934;-73
2021/08/19 01:29:35;;;;;;;;;;;;;;;14.56;79.54;99639.53;4920846;29;19927;-73
2021/08/19 01:32:05;;;;;;;;;;;;;;;14.51;79.69;99637.06;4920942;29;19927;-71
2021/08/19 01:34:34;;;;;;;;;;;;;;;14.46;79.87;99641.41;4921170;29;19966;-73
2021/08/19 01:37:03;;;;;;;;;;;;;;;14.48;80.07;99639.66;4921914;29;19934;-73
2021/08/19 01:39:31;;;;;;;;;;;;;;;14.39;80.37;99647.53;4920704;29;20399;-72
2021/08/19 01:42:00;;;;;;;;;;;;;;;14.31;80.49;99643.38;4920566;29;19966;-73
2021/08/19 01:44:29;;;;;;;;;;;;;;;14.19;80.68;99634.13;4921189;29;19927;-71
2021/08/19 01:46:59;;;;;;;;;;;;;;;14.34;80.88;99640.78;4920395;29;20390;-71
2021/08/19 01:49:29;;;;;;;;;;;;;;;14.41;80.63;99643.22;4920630;29;19974;-73
2021/08/19 01:51:59;;;;;;;;;;;;;;;14.37;80.85;99646.69;4919202;29;19928;-71
2021/08/19 01:54:28;;;;;;;;;;;;;;;14.49;80.83;99641.34;4919234;29;19931;-73
2021/08/19 01:56:58;;;;;;;;;;;;;;;14.52;80.76;99645.59;4919969;29;20349;-74
2021/08/19 01:59:27;;;;;;;;;;;;;;;14.53;80.53;99648.16;4920402;29;19931;-71
2021/08/19 02:01:56;;;;;;;;;;;;;;;14.56;80.19;99648.09;4920654;29;19927;-73
2021/08/19 02:04:30;;;;;;;;;;;;;;;14.47;80.29;99645.66;4920164;29;19927;-73
2021/08/19 02:06:58;;;;;;;;;;;;;;;14.26;80.31;99643.44;4920340;29;20027;-73
2021/08/19 02:09:27;;;;;;;;;;;;;;;14.24;81.24;99640.03;4871803;29;20017;-73
2021/08/19 02:11:56;;;;;;;;;;;;;;;14.28;81.48;99641.69;4920153;29;20021;-73
2021/08/19 02:14:25;;;;;;;;;;;;;;;14.36;81.72;99629.59;4918986;29;19927;-73
2021/08/19 02:16:54;;;;;;;;;;;;;;;14.40;81.95;99626.09;4920045;29;19927;-71
2021/08/19 02:19:23;;;;;;;;;;;;;;;14.43;81.92;99631.19;4887112;29;20021;-73
2021/08/19 02:21:53;;;;;;;;;;;;;;;14.45;81.68;99629.44;4887685;29;19938;-74
2021/08/19 02:24:22;;;;;;;;;;;;;;;14.48;81.80;99634.53;4920131;29;19938;-70
2021/08/19 02:26:51;;;;;;;;;;;;;;;14.45;81.40;99631.16;4920234;29;19927;-71
2021/08/19 02:29:19;;;;;;;;;;;;;;;14.47;81.97;99627.69;4919904;29;20017;-74
2021/08/19 02:31:49;;;;;;;;;;;;;;;14.48;81.48;99629.41;4919843;29;20014;-73
2021/08/19 02:34:18;;;;;;;;;;;;;;;14.47;81.92;99625.13;4919873;29;19927;-73
2021/08/19 02:36:47;;;;;;;;;;;;;;;14.57;82.08;99623.25;4920065;29;19978;-70
2021/08/19 02:39:17;;;;;;;;;;;;;;;14.74;81.90;99631.50;4919653;29;19927;-71
2021/08/19 02:41:46;;;;;;;;;;;;;;;14.84;82.00;99624.47;4919709;29;20361;-73
2021/08/19 02:44:15;;;;;;;;;;;;;;;14.82;81.29;99623.66;4887787;29;19927;-71
2021/08/19 02:46:44;;;;;;;;;;;;;;;14.76;81.55;99622.88;4919335;29;19949;-71
2021/08/19 02:49:13;;;;;;;;;;;;;;;14.90;81.43;99621.78;4919513;29;19927;-70
2021/08/19 02:51:45;;;;;;;;;;;;;;;15.01;81.50;99610.41;4918268;29;19934;-71
2021/08/19 02:54:14;;;;;;;;;;;;;;;14.92;80.98;99620.03;4919449;29;19970;-70
2021/08/19 02:56:44;;;;;;;;;;;;;;;14.83;81.42;99622.78;4919339;29;19934;-71
2021/08/19 02:59:13;;;;;;;;;;;;;;;14.93;81.76;99621.72;4919319;29;19927;-73
2021/08/19 03:01:41;;;;;;;;;;;;;;;14.98;81.46;99617.31;4919256;29;20014;-73
2021/08/19 03:04:11;;;;;;;;;;;;;;;14.98;81.63;99614.75;4918000;29;19934;-70
2021/08/19 03:06:39;;;;;;;;;;;;;;;15.10;81.47;99619.66;4919023;29;20023;-73
2021/08/19 03:09:08;;;;;;;;;;;;;;;15.20;81.66;99621.16;4919378;29;19949;-73
2021/08/19 03:11:37;;;;;;;;;;;;;;;15.21;81.36;99622.88;4919112;29;19962;-74
2021/08/19 03:14:08;;;;;;;;;;;;;;;15.22;81.26;99619.41;4917828;29;19962;-70
2021/08/19 03:16:36;;;;;;;;;;;;;;;15.18;80.95;99628.06;4919051;29;19950;-71
2021/08/19 03:19:05;;;;;;;;;;;;;;;15.23;81.10;99623.69;4918884;29;19934;-72
2021/08/19 03:21:34;;;;;;;;;;;;;;;15.28;80.79;99620.13;4919107;29;19970;-71
2021/08/19 03:24:02;;;;;;;;;;;;;;;15.27;80.51;99622.75;4918658;29;19931;-73
2021/08/19 03:26:32;;;;;;;;;;;;;;;15.26;80.36;99626.19;4918845;29;19927;-73
2021/08/19 03:29:00;;;;;;;;;;;;;;;15.24;80.06;99627.94;4917514;29;19927;-73
2021/08/19 03:31:32;;;;;;;;;;;;;;;15.24;80.00;99628.78;4901488;29;19931;-73
2021/08/19 03:34:01;;;;;;;;;;;;;;;15.22;80.20;99627.97;4918678;29;19961;-74
2021/08/19 03:36:30;;;;;;;;;;;;;;;15.22;80.14;99625.41;4917230;29;20393;-73
2021/08/19 03:38:59;;;;;;;;;;;;;;;15.23;79.63;99631.41;4917535;29;19927;-73
2021/08/19 03:41:28;;;;;;;;;;;;;;;15.28;79.95;99629.59;4919050;29;20127;-70
2021/08/19 03:43:56;;;;;;;;;;;;;;;15.26;80.11;99633.91;4918698;29;20282;-70
2021/08/19 03:46:25;;;;;;;;;;;;;;;15.31;79.72;99639.78;4918450;29;19934;-73
2021/08/19 03:48:56;;;;;;;;;;;;;;;15.33;79.50;99632.91;4918381;29;20425;-73
2021/08/19 03:51:25;;;;;;;;;;;;;;;15.34;79.39;99639.72;4918414;29;19927;-74
2021/08/19 03:53:55;;;;;;;;;;;;;;;15.35;79.58;99628.56;4918665;29;20266;-72
2021/08/19 03:56:27;;;;;;;;;;;;;;;15.36;79.49;99627.69;4918362;29;19934;-70
2021/08/19 03:58:56;;;;;;;;;;;;;;;15.36;79.28;99617.41;4918605;29;19927;-70
2021/08/19 04:01:25;;;;;;;;;;;;;;;15.34;79.43;99619.16;4918189;29;19983;-73
2021/08/19 04:03:56;;;;;;;;;;;;;;;15.37;79.25;99619.09;4918125;29;19983;-73
2021/08/19 04:06:24;;;;;;;;;;;;;;;15.37;79.28;99612.25;4918245;29;19927;-71
2021/08/19 04:08:55;;;;;;;;;;;;;;;15.33;78.95;99613.16;4917543;29;19927;-70
2021/08/19 04:11:26;;;;;;;;;;;;;;;15.33;79.26;99612.34;4917940;29;19934;-70
2021/08/19 04:14:05;;;;;;;;;;;;;;;15.38;79.33;99608.78;4918199;29;20021;-71
2021/08/19 04:16:33;;;;;;;;;;;;;;;15.38;79.01;99611.34;4918285;29;19962;-71
2021/08/19 04:19:04;;;;;;;;;;;;;;;15.41;79.54;99610.44;4917495;29;20383;-74
2021/08/19 04:21:33;;;;;;;;;;;;;;;15.38;79.45;99610.50;4885714;29;19938;-73
2021/08/19 04:24:01;;;;;;;;;;;;;;;15.44;79.14;99610.38;4918180;29;20400;-70
2021/08/19 04:26:30;;;;;;;;;;;;;;;15.47;79.25;99600.06;4917936;29;19951;-71
2021/08/19 04:28:59;;;;;;;;;;;;;;;15.53;79.37;99605.06;4918166;29;20289;-70
2021/08/19 04:31:27;;;;;;;;;;;;;;;15.52;79.24;99603.38;4917863;29;20391;-73
2021/08/19 04:33:56;;;;;;;;;;;;;;;15.56;79.23;99602.44;4917812;29;19935;-71
2021/08/19 04:36:26;;;;;;;;;;;;;;;15.53;79.05;99594.75;4917658;29;19970;-74
2021/08/19 04:38:55;;;;;;;;;;;;;;;15.52;79.24;99598.25;4917831;29;19934;-71
2021/08/19 04:41:37;;;;;;;;;;;;;;;15.45;79.14;99606.13;4918114;29;20373;-74
2021/08/19 04:44:06;;;;;;;;;;;;;;;15.43;78.84;99600.94;4918042;29;19928;-74
2021/08/19 04:46:35;;;;;;;;;;;;;;;15.52;78.71;99598.25;4918070;29;19934;-71
2021/08/19 04:49:05;;;;;;;;;;;;;;;15.61;79.05;99605.75;4915883;29;19927;-73
2021/08/19 04:51:36;;;;;;;;;;;;;;;15.61;78.65;99603.16;4917745;29;19927;-74
2021/08/19 04:54:06;;;;;;;;;;;;;;;15.59;78.39;99602.38;4917686;29;19927;-70
2021/08/19 04:56:37;;;;;;;;;;;;;;;15.62;78.43;99610.00;4917639;29;19928;-71
2021/08/19 04:59:06;;;;;;;;;;;;;;;15.67;78.26;99608.16;4918244;29;19933;-73
2021/08/19 05:01:36;;;;;;;;;;;;;;;15.74;78.18;99616.63;4917892;29;19927;-72
2021/08/19 05:04:05;;;;;;;;;;;;;;;15.79;77.93;99613.03;4917551;29;20290;-72
2021/08/19 05:06:36;;;;;;;;;;;;;;;15.83;77.58;99614.69;4917471;29;20005;-73
2021/08/19 05:09:06;;;;;;;;;;;;;;;15.89;77.88;99617.09;4916351;29;19927;-70
2021/08/19 05:11:35;;;;;;;;;;;;;;;15.90;77.53;99618.81;4918068;29;19974;-74
2021/08/19 05:14:04;;;;;;;;;;;;;;;15.96;77.62;99625.50;4917498;29;19927;-71
2021/08/19 05:16:33;;;;;;;;;;;;;;;16.00;77.35;99617.69;4917424;29;19938;-71
2021/08/19 05:19:02;;;;;;;;;;;;;;;16.05;77.32;99621.00;4916253;29;19931;-73
2021/08/19 05:21:31;;;;;;;;;;;;;;;16.10;77.46;99629.47;4917428;29;19973;-70
2021/08/19 05:24:01;;;;;;;;;;;;;;;16.14;77.26;99629.41;4917389;29;19933;-70
2021/08/19 05:26:29;;;;;;;;;;;;;;;16.09;76.82;99637.22;4917206;29;19979;-73
2021/08/19 05:28:58;;;;;;;;;;;;;;;16.09;76.98;99625.22;4916189;29;19927;-73
2021/08/19 05:31:27;;;;;;;;;;;;;;;16.18;76.60;99625.84;4920289;29;20027;-70
2021/08/19 05:33:55;;;;;;;;;;;;;;;16.21;76.34;99626.63;4920848;29;19934;-70
2021/08/19 05:36:24;;;;;;;;;;;;;;;16.19;76.66;99627.56;4920781;29;19982;-73
2021/08/19 05:38:54;;;;;;;;;;;;;;;16.18;76.78;99620.69;4920782;29;19979;-70
2021/08/19 05:41:24;;;;;;;;;;;;;;;16.15;76.65;99623.38;4921317;29;20025;-73
2021/08/19 05:43:53;;;;;;;;;;;;;;;16.21;76.76;99625.78;4920745;29;19931;-71
2021/08/19 05:46:22;;;;;;;;;;;;;;;16.28;76.45;99617.88;4920790;29;20330;-71
2021/08/19 05:48:50;;;;;;;;;;;;;;;16.42;76.52;99620.94;4920850;29;19934;-73
2021/08/19 05:51:19;;;;;;;;;;;;;;;16.49;76.42;99626.78;4920549;29;19931;-71
2021/08/19 05:53:48;;;;;;;;;;;;;;;16.48;76.09;99622.53;4921007;29;19978;-73
2021/08/19 05:56:16;;;;;;;;;;;;;;;16.44;76.05;99626.03;4920696;29;19999;-70
2021/08/19 05:58:46;;;;;;;;;;;;;;;16.49;75.85;99629.34;4920669;29;20434;-71
2021/08/19 06:01:15;;;;;;;;;;;;;;;16.63;76.08;99624.72;4920458;29;19934;-71
2021/08/19 06:03:45;;;;;;;;;;;;;;;16.79;75.73;99631.19;4920330;29;20022;-71
2021/08/19 06:06:17;;;;;;;;;;;;;;;16.87;75.51;99631.00;4920301;29;19931;-71
2021/08/19 06:08:46;;;;;;;;;;;;;;;16.94;75.18;99628.19;4920239;29;19927;-73
2021/08/19 06:11:15;;;;;;;;;;;;;;;17.00;74.83;99629.75;4920765;29;19935;-73
2021/08/19 06:13:43;;;;;;;;;;;;;;;16.96;75.05;99623.00;4920156;29;19927;-71
2021/08/19 06:16:13;;;;;;;;;;;;;;;16.85;75.38;99620.69;4918979;29;19931;-71
2021/08/19 06:18:45;;;;;;;;;;;;;;;17.03;75.30;99621.94;4920070;29;19935;-72
2021/08/19 06:21:14;;;;;;;;;;;;;;;17.22;74.90;99623.13;4920179;29;20341;-74
2021/08/19 06:23:42;;;;;;;;;;;;;;;17.40;74.37;99625.16;4919993;29;19931;-73
2021/08/19 06:26:11;;;;;;;;;;;;;;;17.44;73.78;99630.16;4920138;29;19927;-73
2021/08/19 06:28:40;;;;;;;;;;;;;;;17.49;73.78;99624.91;4920076;29;19927;-71
2021/08/19 06:31:08;;;;;;;;;;;;;;;17.34;73.52;99626.19;4919920;29;19965;-74
2021/08/19 06:33:39;;;;;;;;;;;;;;;17.29;73.99;99628.06;4919833;29;19983;-71
2021/08/19 06:36:07;;;;;;;;;;;;;;;17.50;74.15;99628.31;4919791;29;19994;-71
2021/08/19 06:38:36;;;;;;;;;;;;;;;17.67;74.19;99626.09;4920064;29;20344;-71
2021/08/19 06:41:05;;;;;;;;;;;;;;;17.79;73.61;99628.31;4919817;29;19927;-70
2021/08/19 06:43:33;;;;;;;;;;;;;;;17.72;73.54;99627.66;4919218;29;19931;-74
2021/08/19 06:46:02;;;;;;;;;;;;;;;17.53;73.70;99625.66;4918607;29;20462;-74
2021/08/19 06:48:31;;;;;;;;;;;;;;;17.55;73.80;99624.75;4919266;29;19959;-71
2021/08/19 06:51:01;;;;;;;;;;;;;;;17.69;73.87;99626.88;4919283;29;19935;-73
2021/08/19 06:53:30;;;;;;;;;;;;;;;17.83;74.30;99627.31;4919431;29;20308;-73
2021/08/19 06:55:58;;;;;;;;;;;;;;;17.80;74.35;99630.81;4919929;29;19974;-72
2021/08/19 06:58:27;;;;;;;;;;;;;;;17.92;74.09;99625.28;4919651;29;19927;-71
2021/08/19 07:00:56;;;;;;;;;;;;;;;18.09;73.42;99629.94;4919310;29;20289;-73
2021/08/19 07:03:26;;;;;;;;;;;;;;;18.15;73.01;99629.75;4919279;29;19927;-72
2021/08/19 07:05:55;;;;;;;;;;;;;;;18.08;73.19;99630.81;4919249;29;19935;-71
2021/08/19 07:08:25;;;;;;;;;;;;;;;18.17;73.18;99627.09;4919145;29;19927;-70
2021/08/19 07:10:54;;;;;;;;;;;;;;;18.38;73.17;99629.81;4918992;29;19934;-73
2021/08/19 07:13:23;;;;;;;;;;;;;;;18.35;72.86;99635.13;4918887;29;19949;-73
2021/08/19 07:15:51;;;;;;;;;;;;;;;18.02;73.25;99636.16;4918839;29;20017;-72
2021/08/19 07:18:20;;;;;;;;;;;;;;;18.23;73.80;99632.94;4918732;29;19983;-72
2021/08/19 07:20:49;;;;;;;;;;;;;;;18.48;73.27;99631.25;4917565;29;19927;-72
2021/08/19 07:23:18;;;;;;;;;;;;;;;18.68;73.20;99634.00;4918630;29;19927;-73
2021/08/19 07:25:48;;;;;;;;;;;;;;;18.76;72.83;99633.75;4919079;29;19927;-72
2021/08/19 07:28:17;;;;;;;;;;;;;;;18.64;72.82;99632.41;4919230;29;19927;-72
2021/08/19 07:30:45;;;;;;;;;;;;;;;18.82;72.54;99630.94;4918206;29;19931;-72
2021/08/19 07:33:17;;;;;;;;;;;;;;;18.93;72.43;99638.31;4918485;29;19934;-73
2021/08/19 07:35:49;;;;;;;;;;;;;;;19.05;72.02;99627.53;4918563;29;20363;-73
2021/08/19 07:38:19;;;;;;;;;;;;;;;19.13;71.94;99620.34;4918470;29;19931;-72
2021/08/19 07:40:49;;;;;;;;;;;;;;;19.25;71.71;99620.72;4918637;29;20350;-72
2021/08/19 07:43:18;;;;;;;;;;;;;;;19.30;71.25;99625.75;4918796;29;20006;-72
2021/08/19 07:45:47;;;;;;;;;;;;;;;19.21;71.20;99618.31;4917081;29;20441;-70
2021/08/19 07:48:15;;;;;;;;;;;;;;;19.18;71.26;99623.59;4917041;29;20281;-71
2021/08/19 07:50:44;;;;;;;;;;;;;;;19.25;71.42;99622.47;4899451;29;20014;-73
2021/08/19 07:53:13;;;;;;;;;;;;;;;19.24;71.45;99628.56;4898878;29;19935;-71
2021/08/19 07:55:42;;;;;;;;;;;;;;;19.32;71.36;99626.53;4899359;29;19934;-73
2021/08/19 07:58:13;;;;;;;;;;;;;;;19.54;71.53;99624.84;4899803;29;19934;-71
2021/08/19 08:00:42;;;;;;;;;;;;;;;19.70;71.18;99622.53;4899776;29;20293;-70
2021/08/19 08:03:10;;;;;;;;;;;;;;;19.68;71.09;99622.56;4899324;29;19928;-73
2021/08/19 08:05:39;;;;;;;;;;;;;;;19.61;71.24;99623.72;4899323;29;20032;-71
2021/08/19 08:08:10;;;;;;;;;;;;;;;19.80;71.45;99618.66;4899221;29;20038;-73
2021/08/19 08:10:40;;;;;;;;;;;;;;;19.98;71.47;99623.13;4899225;29;19927;-73
2021/08/19 08:13:10;;;;;;;;;;;;;;;20.03;71.05;99619.44;4897995;29;19928;-73
2021/08/19 08:15:41;;;;;;;;;;;;;;;20.22;70.53;99623.88;4897840;29;19931;-74
2021/08/19 08:18:13;;;;;;;;;;;;;;;20.31;70.13;99624.38;4899076;29;19927;-74
2021/08/19 08:20:42;;;;;;;;;;;;;;;20.31;70.17;99626.13;4899025;29;20035;-71
2021/08/19 08:23:11;;;;;;;;;;;;;;;20.35;70.01;99627.69;4899130;29;19927;-73
2021/08/19 08:25:40;;;;;;;;;;;;;;;20.34;69.96;99631.19;4898035;29;19928;-74
2021/08/19 08:28:10;;;;;;;;;;;;;;;20.33;69.93;99629.50;4899151;29;19963;-73
2021/08/19 08:30:41;;;;;;;;;;;;;;;20.33;70.08;99632.09;4899136;29;20026;-71
2021/08/19 08:33:10;;;;;;;;;;;;;;;20.41;69.75;99637.81;4898896;29;19928;-73
2021/08/19 08:35:38;;;;;;;;;;;;;;;20.49;69.17;99635.75;4898960;29;20386;-73
2021/08/19 08:38:08;;;;;;;;;;;;;;;20.59;68.92;99639.63;4899052;29;19927;-72
2021/08/19 08:40:38;;;;;;;;;;;;;;;20.48;68.99;99632.31;4898908;29;20010;-73
2021/08/19 08:43:07;;;;;;;;;;;;;;;20.70;69.00;99632.25;4898651;29;19928;-72
2021/08/19 08:45:36;;;;;;;;;;;;;;;20.72;69.08;99638.22;4898935;29;19928;-73
2021/08/19 08:48:10;;;;;;;;;;;;;;;20.87;68.70;99637.56;4896946;29;19938;-73
2021/08/19 08:50:39;;;;;;;;;;;;;;;20.97;68.33;99644.03;4898796;29;19927;-72
2021/08/19 08:53:09;;;;;;;;;;;;;;;21.30;67.90;99642.59;4898470;29;19966;-71
2021/08/19 08:55:38;;;;;;;;;;;;;;;21.55;67.10;99641.44;4898704;29;20378;-69
2021/08/19 08:58:10;;;;;;;;;;;;;;;21.73;66.75;99635.41;4898762;29;19928;-73
2021/08/19 09:00:41;;;;;;;;;;;;;;;22.02;66.21;99647.91;4899103;29;19980;-74
2021/08/19 09:03:14;;;;;;;;;;;;;;;21.92;65.55;99636.25;4899046;29;20382;-74
2021/08/19 09:05:44;;;;;;;;;;;;;;;21.96;65.15;99638.63;4900824;29;19983;-73
2021/08/19 09:08:14;;;;;;;;;;;;;;;21.96;64.71;99635.19;4902389;29;19927;-72
2021/08/19 09:10:43;;;;;;;;;;;;;;;22.12;63.55;99633.56;4902421;29;19934;-75
2021/08/19 09:13:14;;;;;;;;;;;;;;;22.43;62.32;99628.53;4902270;29;19927;-73
2021/08/19 09:15:43;;;;;;;;;;;;;;;22.56;60.90;99629.59;4902432;29;19935;-73
2021/08/19 09:18:13;;;;;;;;;;;;;;;22.72;60.56;99636.66;4902291;29;19975;-72
2021/08/19 09:20:44;;;;;;;;;;;;;;;22.76;60.25;99630.38;4902208;29;19935;-71
2021/08/19 09:23:13;;;;;;;;;;;;;;;22.81;59.52;99634.44;4902456;29;19960;-71
2021/08/19 09:25:45;;;;;;;;;;;;;;;22.80;59.51;99627.53;4902232;29;19927;-72
2021/08/19 09:28:18;;;;;;;;;;;;;;;22.88;59.47;99624.53;4901812;29;20034;-72
2021/08/19 09:30:48;;;;;;;;;;;;;;;23.02;59.27;99622.06;4901970;29;19931;-72
2021/08/19 09:33:19;;;;;;;;;;;;;;;23.07;59.26;99614.84;4901987;29;19928;-72
2021/08/19 09:35:49;;;;;;;;;;;;;;;23.10;59.27;99614.69;4901921;29;19928;-73
2021/08/19 09:38:20;;;;;;;;;;;;;;;22.94;58.98;99611.22;4900584;29;19934;-71
2021/08/19 09:40:59;;;;;;;;;;;;;;;22.89;58.90;99595.81;4901854;29;19927;-73
2021/08/19 09:43:38;;;;;;;;;;;;;;;22.94;58.68;99593.00;4901873;29;19927;-71
2021/08/19 09:46:07;;;;;;;;;;;;;;;23.11;58.22;99598.13;4902440;29;19927;-74
2021/08/19 09:48:38;;;;;;;;;;;;;;;23.26;57.94;99589.50;4901649;29;19966;-71
2021/08/19 09:51:15;;;;;;;;;;;;;;;23.32;57.93;99589.19;4901746;29;19927;-74
2021/08/19 09:53:44;;;;;;;;;;;;;;;23.47;57.59;99593.56;4901823;29;19975;-74
2021/08/19 09:56:13;;;;;;;;;;;;;;;23.84;57.79;99598.44;4901746;29;20354;-74
2021/08/19 09:58:42;;;;;;;;;;;;;;;24.13;57.39;99595.97;4900334;29;19935;-74
2021/08/19 10:01:11;;;;;;;;;;;;;;;24.32;56.66;99589.63;4901454;29;19927;-74
2021/08/19 10:03:42;;;;;;;;;;;;;;;24.53;56.12;99592.72;4901426;29;20087;-74
2021/08/19 10:06:11;;;;;;;;;;;;;;;24.69;55.71;99588.25;4901729;29;20014;-75
2021/08/19 10:08:40;;;;;;;;;;;;;;;24.92;54.71;99586.91;4900197;29;20381;-74
2021/08/19 10:11:12;;;;;;;;;;;;;;;24.81;54.44;99581.53;4901262;29;19950;-74
2021/08/19 10:13:41;;;;;;;;;;;;;;;24.23;53.96;99589.31;4901441;29;20386;-75
2021/08/19 10:16:10;;;;;;;;;;;;;;;24.13;54.19;99588.16;4900565;29;19927;-72
2021/08/19 10:18:41;;;;;;;;;;;;;;;24.17;54.37;99584.44;4901199;29;20370;-72
2021/08/19 10:21:13;;;;;;;;;;;;;;;24.94;53.58;99583.28;4901295;29;19928;-70
2021/08/19 10:24:01;;;;;;;;;;;;;;;25.15;53.07;99581.97;4901025;29;19928;-72
2021/08/19 10:26:31;;;;;;;;;;;;;;;25.25;52.44;99580.47;4900989;29;19927;-74
2021/08/19 10:29:00;;;;;;;;;;;;;;;25.39;51.52;99574.34;4898493;29;20026;-72
2021/08/19 10:31:39;;;;;;;;;;;;;;;24.94;51.07;99574.59;4892892;29;19940;-71
2021/08/19 10:34:08;;;;;;;;;;;;;;;24.24;52.08;99572.72;4882266;29;19928;-72
2021/08/19 10:36:52;;;;;;;;;;;;;;;23.86;53.03;99572.28;4882284;29;20374;-73
2021/08/19 10:39:29;;;;;;;;;;;;;;;24.22;53.15;99574.56;4881568;29;19935;-72
2021/08/19 10:41:58;;;;;;;;;;;;;;;24.99;52.48;99573.41;4865728;29;19935;-72
2021/08/19 10:44:32;;;;;;;;;;;;;;;25.53;51.56;99565.69;4882040;29;19976;-72
2021/08/19 10:47:01;;;;;;;;;;;;;;;25.96;49.89;99575.06;4881995;29;19927;-72
2021/08/19 10:49:40;;;;;;;;;;;;;;;25.97;48.58;99561.03;4881911;29;19927;-72
2021/08/19 10:52:27;;;;;;;;;;;;;;;26.24;48.81;99564.47;4882294;29;19927;-72
2021/08/19 10:55:11;;;;;;;;;;;;;;;25.97;48.22;99561.03;4881819;29;20031;-72
2021/08/19 10:57:47;;;;;;;;;;;;;;;25.42;49.18;99557.66;4879831;29;20294;-73
2021/08/19 11:00:16;;;;;;;;;;;;;;;24.95;49.28;99558.84;4881864;29;19938;-75
2021/08/19 11:02:46;;;;;;;;;;;;;;;24.47;49.77;99556.56;4881673;29;19991;-75
2021/08/19 11:05:35;;;;;;;;;;;;;;;24.43;49.89;99549.81;4881713;29;20410;-73
2021/08/19 11:08:04;;;;;;;;;;;;;;;24.46;48.71;99554.88;4880442;29;19927;-73
2021/08/19 11:10:35;;;;;;;;;;;;;;;24.46;48.24;99554.88;4881497;29;19928;-74
2021/08/19 11:13:07;;;;;;;;;;;;;;;24.34;49.33;99558.19;4881627;29;19927;-74
2021/08/19 11:15:36;;;;;;;;;;;;;;;24.87;49.67;99555.88;4881550;29;19934;-74
2021/08/19 11:18:05;;;;;;;;;;;;;;;25.40;48.50;99546.44;4881638;29;19932;-74
2021/08/19 11:20:35;;;;;;;;;;;;;;;25.77;48.08;99543.19;4880270;29;20007;-72
2021/08/19 11:23:05;;;;;;;;;;;;;;;25.98;46.76;99547.03;4881370;29;20298;-72
2021/08/19 11:25:34;;;;;;;;;;;;;;;26.03;46.01;99538.88;4881380;29;20023;-72
2021/08/19 11:28:14;;;;;;;;;;;;;;;26.00;45.77;99539.91;4880998;29;19938;-72
2021/08/19 11:30:46;;;;;;;;;;;;;;;26.01;45.77;99540.75;4881547;29;19950;-72
2021/08/19 11:33:16;;;;;;;;;;;;;;;25.76;45.64;99533.66;4881460;29;19959;-72
2021/08/19 11:35:45;;;;;;;;;;;;;;;25.51;46.04;99525.72;4881028;29;19932;-72
2021/08/19 11:38:14;;;;;;;;;;;;;;;25.09;46.09;99526.66;4880802;29;20018;-72
2021/08/19 11:40:44;;;;;;;;;;;;;;;24.75;46.65;99525.25;4880911;29;20326;-71
2021/08/19 11:43:19;;;;;;;;;;;;;;;24.54;47.33;99521.34;4879556;29;19979;-72
2021/08/19 11:45:51;;;;;;;;;;;;;;;24.28;47.29;99541.13;4881202;29;19976;-72
2021/08/19 11:48:20;;;;;;;;;;;;;;;24.13;47.51;99520.34;4880584;29;20449;-72
2021/08/19 11:50:53;;;;;;;;;;;;;;;24.11;48.33;99527.41;4880662;29;19934;-72
2021/08/19 11:53:22;;;;;;;;;;;;;;;23.97;48.34;99526.41;4880699;29;20309;-74
2021/08/19 11:55:52;;;;;;;;;;;;;;;23.93;48.42;99524.91;4894924;29;19960;-74
2021/08/19 11:58:22;;;;;;;;;;;;;;;24.04;48.98;99526.06;4880483;29;19939;-72
2021/08/19 12:01:01;;;;;;;;;;;;;;;24.17;48.77;99527.03;4880494;29;19970;-71
2021/08/19 12:03:30;;;;;;;;;;;;;;;24.42;47.79;99509.03;4879829;29;19935;-72
2021/08/19 12:06:00;;;;;;;;;;;;;;;25.09;47.13;99519.66;4880512;29;20019;-72
2021/08/19 12:08:29;;;;;;;;;;;;;;;25.72;46.38;99513.91;4880546;29;20454;-72
2021/08/19 12:10:59;;;;;;;;;;;;;;;26.45;45.33;99515.91;4880600;29;19931;-72
2021/08/19 12:13:29;;;;;;;;;;;;;;;26.16;45.72;99514.44;4880531;29;19939;-74
2021/08/19 12:16:00;;;;;;;;;;;;;;;26.15;45.21;99522.38;4880435;29;19928;-72
2021/08/19 12:18:30;;;;;;;;;;;;;;;25.41;45.31;99504.53;4880400;29;19928;-73
2021/08/19 12:21:16;;;;;;;;;;;;;;;24.98;46.58;99498.56;4880500;29;19932;-72
2021/08/19 12:23:45;;;;;;;;;;;;;;;25.35;45.95;99504.09;4880332;29;19934;-72
2021/08/19 12:26:14;;;;;;;;;;;;;;;26.20;44.91;99515.88;4880412;29;20022;-71
2021/08/19 12:28:54;;;;;;;;;;;;;;;26.33;44.41;99506.28;4883991;29;20314;-75
2021/08/19 12:31:43;;;;;;;;;;;;;;;26.79;43.41;99503.13;4898980;29;19927;-74
2021/08/19 12:34:12;;;;;;;;;;;;;;;26.80;43.31;99496.97;4897817;29;19927;-74
2021/08/19 12:36:41;;;;;;;;;;;;;;;27.35;42.72;99497.34;4898964;29;19928;-74
2021/08/19 12:39:16;;;;;;;;;;;;;;;27.71;42.42;99494.69;4897654;29;20122;-74
2021/08/19 12:41:45;;;;;;;;;;;;;;;27.79;41.73;99492.31;4898686;29;20445;-75
2021/08/19 12:44:17;;;;;;;;;;;;;;;28.00;41.91;99487.28;4898924;29;19927;-74
2021/08/19 12:46:49;;;;;;;;;;;;;;;27.40;42.13;99499.66;4898654;29;19927;-71
2021/08/19 12:49:24;;;;;;;;;;;;;;;26.77;42.90;99495.41;4898592;29;19928;-72
2021/08/19 12:52:04;;;;;;;;;;;;;;;26.22;42.84;99498.31;4898757;29;20313;-72
2021/08/19 12:54:33;;;;;;;;;;;;;;;25.82;43.86;99504.47;4898687;29;19927;-73
2021/08/19 12:57:04;;;;;;;;;;;;;;;25.54;44.84;99507.22;4897577;29;19934;-73
2021/08/19 12:59:34;;;;;;;;;;;;;;;25.28;45.70;99496.66;4899158;29;20424;-74
2021/08/19 13:02:04;;;;;;;;;;;;;;;25.03;45.95;99493.91;4898613;29;20347;-74
2021/08/19 13:04:33;;;;;;;;;;;;;;;24.87;46.56;99487.97;4897098;29;19927;-75